Time,TemperatureF,DewpointF,PressureIn,WindDirection,WindDirectionDegrees,WindSpeedMPH,WindSpeedGustMPH,Humidity,HourlyPrecipIn,Conditions,Clouds,dailyrainin,SoftwareType,DateUTC
2013-02-21 00:11:00,23.8,12.0,30.05,WNW,300,4.0,7.0,60,0.00,,,0.00,weatherlink.com 1.10,2013-02-21 05:11:00,
2013-02-21 00:27:00,23.5,12.0,30.05,NW,311,2.0,5.0,61,0.00,,,0.00,weatherlink.com 1.10,2013-02-21 05:27:00,
2013-02-21 00:42:00,23.2,12.0,30.06,West,277,3.0,5.0,63,0.00,,,0.00,weatherlink.com 1.10,2013-02-21 05:42:00,
2013-02-21 01:12:00,23.5,12.0,30.05,WNW,290,3.0,5.0,62,0.00,,,0.00,weatherlink.com 1.10,2013-02-21 06:12:00,
2013-02-21 01:27:00,23.8,12.0,30.06,West,281,0.0,5.0,61,0.00,,,0.00,weatherlink.com 1.10,2013-02-21 06:27:00,
2013-02-21 01:42:00,23.9,12.0,30.05,NW,321,4.0,6.0,61,0.00,,,0.00,weatherlink.com 1.10,2013-02-21 06:42:00,
2013-02-21 01:57:00,24.0,13.0,30.05,SE,141,0.0,8.0,62,0.00,,,0.00,weatherlink.com 1.10,2013-02-21 06:57:00,
2013-02-21 02:12:00,24.2,13.0,30.05,WNW,290,4.0,9.0,62,0.00,,,0.00,weatherlink.com 1.10,2013-02-21 07:12:00,
2013-02-21 02:27:00,24.3,13.0,30.05,North,5,3.0,6.0,62,0.00,,,0.00,weatherlink.com 1.10,2013-02-21 07:27:00,
2013-02-21 02:42:00,24.3,13.0,30.04,NW,307,3.0,8.0,62,0.00,,,0.00,weatherlink.com 1.10,2013-02-21 07:42:00,
2013-02-21 02:58:00,24.3,13.0,30.04,SW,236,0.0,6.0,62,0.00,,,0.00,weatherlink.com 1.10,2013-02-21 07:58:00,
2013-02-21 03:12:00,24.4,13.0,30.04,WNW,290,0.0,6.0,63,0.00,,,0.00,weatherlink.com 1.10,2013-02-21 08:12:00,
2013-02-21 03:27:00,24.5,14.0,30.04,WNW,290,2.0,9.0,64,0.00,,,0.00,weatherlink.com 1.10,2013-02-21 08:27:00,
2013-02-21 03:42:00,24.5,14.0,30.04,WNW,293,5.0,7.0,64,0.00,,,0.00,weatherlink.com 1.10,2013-02-21 08:42:00,
2013-02-21 03:57:00,24.5,14.0,30.04,WNW,295,1.0,6.0,64,0.00,,,0.00,weatherlink.com 1.10,2013-02-21 08:57:00,
2013-02-21 04:12:00,24.6,14.0,30.05,NW,314,3.0,10.0,64,0.00,,,0.00,weatherlink.com 1.10,2013-02-21 09:12:00,
2013-02-21 04:27:00,24.6,14.0,30.04,SW,229,2.0,4.0,65,0.00,,,0.00,weatherlink.com 1.10,2013-02-21 09:27:00,
2013-02-21 04:42:00,24.5,14.0,30.04,West,278,5.0,7.0,64,0.00,,,0.00,weatherlink.com 1.10,2013-02-21 09:42:00,
2013-02-21 04:57:00,24.5,14.0,30.05,WNW,299,6.0,9.0,64,0.00,,,0.00,weatherlink.com 1.10,2013-02-21 09:57:00,
2013-02-21 05:12:00,24.6,14.0,30.05,West,270,3.0,9.0,65,0.00,,,0.00,weatherlink.com 1.10,2013-02-21 10:12:00,
2013-02-21 05:27:00,24.5,14.0,30.06,WNW,302,3.0,11.0,65,0.00,,,0.00,weatherlink.com 1.10,2013-02-21 10:27:00,
2013-02-21 05:42:00,24.5,14.0,30.06,SW,232,1.0,10.0,64,0.00,,,0.00,weatherlink.com 1.10,2013-02-21 10:42:00,
2013-02-21 05:57:00,24.5,14.0,30.07,West,263,4.0,8.0,64,0.00,,,0.00,weatherlink.com 1.10,2013-02-21 10:57:00,
2013-02-21 06:12:00,24.5,14.0,30.06,WNW,285,5.0,8.0,64,0.00,,,0.00,weatherlink.com 1.10,2013-02-21 11:12:00,
2013-02-21 06:27:00,24.5,13.0,30.07,West,278,4.0,7.0,63,0.00,,,0.00,weatherlink.com 1.10,2013-02-21 11:27:00,
2013-02-21 06:42:00,24.5,13.0,30.07,WNW,301,5.0,9.0,63,0.00,,,0.00,weatherlink.com 1.10,2013-02-21 11:42:00,
2013-02-21 06:57:00,24.4,13.0,30.07,WNW,294,6.0,7.0,62,0.00,,,0.00,weatherlink.com 1.10,2013-02-21 11:57:00,
2013-02-21 07:12:00,24.5,13.0,30.07,West,280,4.0,7.0,63,0.00,,,0.00,weatherlink.com 1.10,2013-02-21 12:12:00,
2013-02-21 07:28:00,24.6,13.0,30.08,NW,326,7.0,8.0,62,0.00,,,0.00,weatherlink.com 1.10,2013-02-21 12:28:00,
2013-02-21 07:42:00,24.9,13.0,30.08,WSW,239,5.0,8.0,62,0.00,,,0.00,weatherlink.com 1.10,2013-02-21 12:42:00,
2013-02-21 07:57:00,25.1,14.0,30.08,WNW,287,2.0,7.0,62,0.00,,,0.00,weatherlink.com 1.10,2013-02-21 12:57:00,
2013-02-21 08:12:00,25.4,14.0,30.08,NW,307,3.0,8.0,61,0.00,,,0.00,weatherlink.com 1.10,2013-02-21 13:12:00,
2013-02-21 08:28:00,25.7,14.0,30.09,West,274,1.0,10.0,61,0.00,,,0.00,weatherlink.com 1.10,2013-02-21 13:28:00,
2013-02-21 08:44:00,26.0,14.0,30.09,West,261,6.0,7.0,61,0.00,,,0.00,weatherlink.com 1.10,2013-02-21 13:44:00,
2013-02-21 08:58:00,26.3,14.0,30.10,WNW,302,4.0,10.0,61,0.00,,,0.00,weatherlink.com 1.10,2013-02-21 13:58:00,
2013-02-21 09:13:00,26.5,14.0,30.10,West,277,4.0,8.0,60,0.00,,,0.00,weatherlink.com 1.10,2013-02-21 14:13:00,
2013-02-21 09:28:00,26.7,14.0,30.10,NW,309,2.0,10.0,60,0.00,,,0.00,weatherlink.com 1.10,2013-02-21 14:28:00,
2013-02-21 09:43:00,27.0,14.0,30.11,NW,304,1.0,10.0,59,0.00,,,0.00,weatherlink.com 1.10,2013-02-21 14:43:00,
2013-02-21 09:58:00,27.3,14.0,30.11,West,279,5.0,14.0,58,0.00,,,0.00,weatherlink.com 1.10,2013-02-21 14:58:00,
2013-02-21 10:13:00,27.5,14.0,30.11,WNW,295,3.0,9.0,58,0.00,,,0.00,weatherlink.com 1.10,2013-02-21 15:13:00,
2013-02-21 10:28:00,27.9,15.0,30.12,SW,236,7.0,13.0,58,0.00,,,0.00,weatherlink.com 1.10,2013-02-21 15:28:00,
2013-02-21 10:43:00,28.2,15.0,30.12,West,269,4.0,10.0,57,0.00,,,0.00,weatherlink.com 1.10,2013-02-21 15:43:00,
2013-02-21 10:58:00,28.4,15.0,30.12,WNW,298,6.0,12.0,58,0.00,,,0.00,weatherlink.com 1.10,2013-02-21 15:58:00,
2013-02-21 11:13:00,29.5,16.0,30.11,West,265,1.0,11.0,58,0.00,,,0.00,weatherlink.com 1.10,2013-02-21 16:13:00,
2013-02-21 11:28:00,30.7,17.0,30.11,West,265,9.0,13.0,56,0.00,,,0.00,weatherlink.com 1.10,2013-02-21 16:28:00,
2013-02-21 11:43:00,31.7,16.0,30.10,WNW,291,8.0,9.0,53,0.00,,,0.00,weatherlink.com 1.10,2013-02-21 16:43:00,
2013-02-21 11:58:00,31.5,16.0,30.10,WNW,285,5.0,10.0,53,0.00,,,0.00,weatherlink.com 1.10,2013-02-21 16:58:00,
2013-02-21 12:13:00,32.3,17.0,30.09,NW,319,3.0,11.0,54,0.00,,,0.00,weatherlink.com 1.10,2013-02-21 17:13:00,
2013-02-21 12:28:00,32.1,17.0,30.08,West,274,5.0,10.0,54,0.00,,,0.00,weatherlink.com 1.10,2013-02-21 17:28:00,
2013-02-21 12:43:00,32.9,17.0,30.08,WNW,285,6.0,10.0,53,0.00,,,0.00,weatherlink.com 1.10,2013-02-21 17:43:00,
2013-02-21 12:58:00,33.6,18.0,30.09,WNW,285,6.0,8.0,53,0.00,,,0.00,weatherlink.com 1.10,2013-02-21 17:58:00,
2013-02-21 13:13:00,33.6,18.0,30.09,WNW,285,4.0,9.0,52,0.00,,,0.00,weatherlink.com 1.10,2013-02-21 18:13:00,
2013-02-21 13:28:00,34.1,17.0,30.09,West,276,6.0,9.0,50,0.00,,,0.00,weatherlink.com 1.10,2013-02-21 18:28:00,
2013-02-21 13:43:00,34.2,19.0,30.08,West,260,4.0,11.0,53,0.00,,,0.00,weatherlink.com 1.10,2013-02-21 18:43:00,
2013-02-21 13:58:00,35.3,19.0,30.09,WNW,303,6.0,9.0,52,0.00,,,0.00,weatherlink.com 1.10,2013-02-21 18:58:00,
2013-02-21 14:13:00,36.3,19.0,30.08,WNW,298,6.0,10.0,49,0.00,,,0.00,weatherlink.com 1.10,2013-02-21 19:13:00,
2013-02-21 14:28:00,36.2,19.0,30.09,SSE,158,0.0,11.0,50,0.00,,,0.00,weatherlink.com 1.10,2013-02-21 19:28:00,
2013-02-21 14:44:00,36.2,19.0,30.08,West,281,7.0,9.0,49,0.00,,,0.00,weatherlink.com 1.10,2013-02-21 19:44:00,
2013-02-21 14:58:00,36.5,18.0,30.08,WNW,302,5.0,7.0,47,0.00,,,0.00,weatherlink.com 1.10,2013-02-21 19:58:00,
2013-02-21 15:13:00,35.2,17.0,30.09,SW,229,2.0,15.0,48,0.00,,,0.00,weatherlink.com 1.10,2013-02-21 20:13:00,
2013-02-21 15:28:00,34.5,16.0,30.09,West,264,5.0,12.0,48,0.00,,,0.00,weatherlink.com 1.10,2013-02-21 20:28:00,
2013-02-21 15:43:00,34.9,18.0,30.09,NW,314,2.0,9.0,50,0.00,,,0.00,weatherlink.com 1.10,2013-02-21 20:43:00,
2013-02-21 15:58:00,35.2,18.0,30.11,NNW,342,5.0,10.0,50,0.00,,,0.00,weatherlink.com 1.10,2013-02-21 20:58:00,
2013-02-21 16:13:00,34.4,18.0,30.11,NE,55,1.0,10.0,51,0.00,,,0.00,weatherlink.com 1.10,2013-02-21 21:13:00,
2013-02-21 16:29:00,34.7,18.0,30.11,NW,320,2.0,7.0,50,0.00,,,0.00,weatherlink.com 1.10,2013-02-21 21:29:00,
2013-02-21 16:43:00,34.3,18.0,30.12,WNW,300,2.0,7.0,51,0.00,,,0.00,weatherlink.com 1.10,2013-02-21 21:43:00,
2013-02-21 16:58:00,34.4,17.0,30.12,ENE,63,0.0,5.0,50,0.00,,,0.00,weatherlink.com 1.10,2013-02-21 21:58:00,
2013-02-21 17:13:00,33.9,19.0,30.13,West,273,0.0,5.0,54,0.00,,,0.00,weatherlink.com 1.10,2013-02-21 22:13:00,
2013-02-21 17:28:00,33.4,18.0,30.12,NW,326,0.0,3.0,53,0.00,,,0.00,weatherlink.com 1.10,2013-02-21 22:28:00,
2013-02-21 17:43:00,33.1,17.0,30.13,WNW,290,1.0,3.0,53,0.00,,,0.00,weatherlink.com 1.10,2013-02-21 22:43:00,
2013-02-21 17:58:00,32.4,18.0,30.14,West,264,0.0,2.0,56,0.00,,,0.00,weatherlink.com 1.10,2013-02-21 22:58:00,
2013-02-21 18:13:00,31.6,18.0,30.16,WSW,249,0.0,1.0,58,0.00,,,0.00,weatherlink.com 1.10,2013-02-21 23:13:00,
2013-02-21 18:28:00,30.7,19.0,30.17,WNW,296,1.0,1.0,61,0.00,,,0.00,weatherlink.com 1.10,2013-02-21 23:28:00,
2013-02-21 18:44:00,30.5,19.0,30.20,West,269,0.0,2.0,62,0.00,,,0.00,weatherlink.com 1.10,2013-02-21 23:44:00,
2013-02-21 18:59:00,30.2,18.0,30.22,West,269,0.0,0.0,60,0.00,,,0.00,weatherlink.com 1.10,2013-02-21 23:59:00,
2013-02-21 19:14:00,29.5,19.0,30.23,West,269,0.0,0.0,65,0.00,,,0.00,weatherlink.com 1.10,2013-02-22 00:14:00,
2013-02-21 19:29:00,30.2,18.0,30.24,WNW,296,1.0,3.0,62,0.00,,,0.00,weatherlink.com 1.10,2013-02-22 00:29:00,
2013-02-21 19:44:00,31.2,19.0,30.25,ESE,114,0.0,3.0,60,0.00,,,0.00,weatherlink.com 1.10,2013-02-22 00:44:00,
2013-02-21 19:59:00,30.5,18.0,30.25,NW,325,0.0,1.0,61,0.00,,,0.00,weatherlink.com 1.10,2013-02-22 00:59:00,
2013-02-21 20:14:00,30.1,19.0,30.27,ESE,105,0.0,3.0,63,0.00,,,0.00,weatherlink.com 1.10,2013-02-22 01:14:00,
2013-02-21 20:29:00,30.0,18.0,30.27,NNW,345,0.0,3.0,61,0.00,,,0.00,weatherlink.com 1.10,2013-02-22 01:29:00,
2013-02-21 20:44:00,29.9,18.0,30.26,NNE,27,0.0,4.0,62,0.00,,,0.00,weatherlink.com 1.10,2013-02-22 01:44:00,
2013-02-21 20:59:00,29.6,18.0,30.26,NW,326,0.0,4.0,62,0.00,,,0.00,weatherlink.com 1.10,2013-02-22 01:59:00,
2013-02-21 21:14:00,29.1,18.0,30.26,WNW,302,2.0,7.0,63,0.00,,,0.00,weatherlink.com 1.10,2013-02-22 02:14:00,
2013-02-21 21:29:00,28.4,18.0,30.27,West,259,0.0,6.0,64,0.00,,,0.00,weatherlink.com 1.10,2013-02-22 02:29:00,
2013-02-21 21:44:00,27.7,17.0,30.27,NE,42,0.0,5.0,65,0.00,,,0.00,weatherlink.com 1.10,2013-02-22 02:44:00,
2013-02-21 21:59:00,27.1,17.0,30.29,NW,311,3.0,4.0,66,0.00,,,0.00,weatherlink.com 1.10,2013-02-22 02:59:00,
2013-02-21 22:14:00,26.5,17.0,30.29,WNW,291,0.0,2.0,68,0.00,,,0.00,weatherlink.com 1.10,2013-02-22 03:14:00,
2013-02-21 22:29:00,26.0,17.0,30.29,WNW,293,1.0,2.0,68,0.00,,,0.00,weatherlink.com 1.10,2013-02-22 03:29:00,
2013-02-21 22:44:00,25.6,17.0,30.30,WNW,303,0.0,1.0,69,0.00,,,0.00,weatherlink.com 1.10,2013-02-22 03:44:00,
2013-02-21 22:59:00,25.4,17.0,30.30,East,98,0.0,2.0,69,0.00,,,0.00,weatherlink.com 1.10,2013-02-22 03:59:00,
2013-02-21 23:14:00,25.3,16.0,30.30,NW,306,0.0,3.0,69,0.00,,,0.00,weatherlink.com 1.10,2013-02-22 04:14:00,
2013-02-21 23:29:00,25.0,16.0,30.31,NW,305,0.0,2.0,68,0.00,,,0.00,weatherlink.com 1.10,2013-02-22 04:29:00,
2013-02-21 23:44:00,24.5,16.0,30.31,NW,322,0.0,1.0,70,0.00,,,0.00,weatherlink.com 1.10,2013-02-22 04:44:00,
2013-02-21 23:59:00,24.0,16.0,30.30,NNW,336,0.0,0.0,71,0.00,,,0.00,weatherlink.com 1.10,2013-02-22 04:59:00,